sensor_id;sensor_type;location;lat;lon;timestamp;P1;durP1;ratioP1;P2;durP2;ratioP2
34098;SDS011;20374;49.474;10.944;2024-03-22T00:00:33;5.53;;;5.13;;
34098;SDS011;20374;49.474;10.944;2024-03-22T00:02:58;6.35;;;5.78;;
34098;SDS011;20374;49.474;10.944;2024-03-22T00:05:24;4.77;;;4.37;;
34098;SDS011;20374;49.474;10.944;2024-03-22T00:07:50;4.75;;;4.35;;
34098;SDS011;20374;49.474;10.944;2024-03-22T00:10:16;5.57;;;5.15;;
34098;SDS011;20374;49.474;10.944;2024-03-22T00:12:42;4.60;;;4.20;;
34098;SDS011;20374;49.474;10.944;2024-03-22T00:15:08;5.75;;;5.15;;
34098;SDS011;20374;49.474;10.944;2024-03-22T00:17:36;5.22;;;4.78;;
34098;SDS011;20374;49.474;10.944;2024-03-22T00:20:02;6.45;;;5.10;;
34098;SDS011;20374;49.474;10.944;2024-03-22T00:22:28;4.97;;;4.07;;
34098;SDS011;20374;49.474;10.944;2024-03-22T00:24:54;5.30;;;4.88;;
34098;SDS011;20374;49.474;10.944;2024-03-22T00:27:20;6.88;;;4.13;;
34098;SDS011;20374;49.474;10.944;2024-03-22T00:29:45;5.27;;;4.17;;
34098;SDS011;20374;49.474;10.944;2024-03-22T00:32:11;4.93;;;4.43;;
34098;SDS011;20374;49.474;10.944;2024-03-22T00:34:37;5.67;;;5.10;;
34098;SDS011;20374;49.474;10.944;2024-03-22T00:37:03;4.72;;;4.20;;
34098;SDS011;20374;49.474;10.944;2024-03-22T00:39:29;6.13;;;4.85;;
34098;SDS011;20374;49.474;10.944;2024-03-22T00:41:55;7.23;;;5.70;;
34098;SDS011;20374;49.474;10.944;2024-03-22T00:44:21;4.60;;;4.30;;
34098;SDS011;20374;49.474;10.944;2024-03-22T00:46:47;4.25;;;3.85;;
34098;SDS011;20374;49.474;10.944;2024-03-22T00:49:12;5.23;;;4.40;;
34098;SDS011;20374;49.474;10.944;2024-03-22T00:51:38;5.60;;;5.10;;
34098;SDS011;20374;49.474;10.944;2024-03-22T00:54:04;5.28;;;4.82;;
34098;SDS011;20374;49.474;10.944;2024-03-22T00:56:30;5.80;;;5.13;;
34098;SDS011;20374;49.474;10.944;2024-03-22T00:58:56;5.53;;;4.85;;
34098;SDS011;20374;49.474;10.944;2024-03-22T01:01:22;6.28;;;5.10;;
34098;SDS011;20374;49.474;10.944;2024-03-22T01:03:48;5.93;;;4.43;;
34098;SDS011;20374;49.474;10.944;2024-03-22T01:06:14;6.47;;;5.90;;
34098;SDS011;20374;49.474;10.944;2024-03-22T01:08:40;4.32;;;3.90;;
34098;SDS011;20374;49.474;10.944;2024-03-22T01:11:06;4.87;;;4.50;;
34098;SDS011;20374;49.474;10.944;2024-03-22T01:13:32;5.50;;;5.00;;
34098;SDS011;20374;49.474;10.944;2024-03-22T01:15:58;6.40;;;5.10;;
34098;SDS011;20374;49.474;10.944;2024-03-22T01:18:23;4.45;;;4.00;;
34098;SDS011;20374;49.474;10.944;2024-03-22T01:20:49;4.68;;;4.20;;
34098;SDS011;20374;49.474;10.944;2024-03-22T01:23:15;6.20;;;5.10;;
34098;SDS011;20374;49.474;10.944;2024-03-22T01:25:41;5.95;;;5.32;;
34098;SDS011;20374;49.474;10.944;2024-03-22T01:28:07;6.13;;;5.55;;
34098;SDS011;20374;49.474;10.944;2024-03-22T01:30:33;5.23;;;4.83;;
34098;SDS011;20374;49.474;10.944;2024-03-22T01:32:59;5.70;;;4.10;;
34098;SDS011;20374;49.474;10.944;2024-03-22T01:35:25;5.60;;;5.03;;
34098;SDS011;20374;49.474;10.944;2024-03-22T01:37:51;6.53;;;5.43;;
34098;SDS011;20374;49.474;10.944;2024-03-22T01:40:16;5.63;;;5.18;;
34098;SDS011;20374;49.474;10.944;2024-03-22T01:42:43;4.18;;;3.78;;
34098;SDS011;20374;49.474;10.944;2024-03-22T01:45:09;4.40;;;4.07;;
34098;SDS011;20374;49.474;10.944;2024-03-22T01:47:38;6.28;;;5.65;;
34098;SDS011;20374;49.474;10.944;2024-03-22T01:50:05;4.63;;;4.32;;
34098;SDS011;20374;49.474;10.944;2024-03-22T01:52:32;5.72;;;5.05;;
34098;SDS011;20374;49.474;10.944;2024-03-22T01:54:58;6.47;;;5.73;;
34098;SDS011;20374;49.474;10.944;2024-03-22T01:57:24;5.85;;;5.25;;
34098;SDS011;20374;49.474;10.944;2024-03-22T01:59:51;6.25;;;4.80;;
34098;SDS011;20374;49.474;10.944;2024-03-22T02:02:21;4.72;;;4.43;;
34098;SDS011;20374;49.474;10.944;2024-03-22T02:04:49;5.77;;;5.23;;
34098;SDS011;20374;49.474;10.944;2024-03-22T02:07:16;5.35;;;4.85;;
34098;SDS011;20374;49.474;10.944;2024-03-22T02:09:42;5.63;;;5.00;;
34098;SDS011;20374;49.474;10.944;2024-03-22T02:12:08;4.22;;;3.88;;
34098;SDS011;20374;49.474;10.944;2024-03-22T02:14:34;4.70;;;4.10;;
34098;SDS011;20374;49.474;10.944;2024-03-22T02:17:00;5.68;;;5.18;;
34098;SDS011;20374;49.474;10.944;2024-03-22T02:19:26;5.57;;;5.05;;
34098;SDS011;20374;49.474;10.944;2024-03-22T02:21:52;5.57;;;5.07;;
34098;SDS011;20374;49.474;10.944;2024-03-22T02:24:18;5.55;;;4.88;;
34098;SDS011;20374;49.474;10.944;2024-03-22T02:26:44;5.50;;;5.00;;
34098;SDS011;20374;49.474;10.944;2024-03-22T02:29:09;5.40;;;4.40;;
34098;SDS011;20374;49.474;10.944;2024-03-22T02:31:35;6.15;;;5.63;;
34098;SDS011;20374;49.474;10.944;2024-03-22T02:34:01;5.13;;;4.73;;
34098;SDS011;20374;49.474;10.944;2024-03-22T02:36:27;4.03;;;3.63;;
34098;SDS011;20374;49.474;10.944;2024-03-22T02:38:53;4.75;;;4.35;;
34098;SDS011;20374;49.474;10.944;2024-03-22T02:41:20;5.07;;;4.40;;
34098;SDS011;20374;49.474;10.944;2024-03-22T02:43:46;5.55;;;3.35;;
34098;SDS011;20374;49.474;10.944;2024-03-22T02:46:12;5.00;;;4.20;;
34098;SDS011;20374;49.474;10.944;2024-03-22T02:48:38;4.68;;;4.25;;
34098;SDS011;20374;49.474;10.944;2024-03-22T02:51:04;5.30;;;4.25;;
34098;SDS011;20374;49.474;10.944;2024-03-22T02:53:30;4.93;;;4.18;;
34098;SDS011;20374;49.474;10.944;2024-03-22T02:55:56;4.13;;;3.78;;
34098;SDS011;20374;49.474;10.944;2024-03-22T02:58:25;5.40;;;4.17;;
34098;SDS011;20374;49.474;10.944;2024-03-22T03:00:51;4.68;;;4.35;;
34098;SDS011;20374;49.474;10.944;2024-03-22T03:03:17;5.00;;;4.55;;
34098;SDS011;20374;49.474;10.944;2024-03-22T03:05:43;4.53;;;4.20;;
34098;SDS011;20374;49.474;10.944;2024-03-22T03:08:09;5.25;;;4.35;;
34098;SDS011;20374;49.474;10.944;2024-03-22T03:10:35;6.13;;;5.57;;
34098;SDS011;20374;49.474;10.944;2024-03-22T03:13:01;5.00;;;4.60;;
34098;SDS011;20374;49.474;10.944;2024-03-22T03:15:27;4.47;;;4.10;;
34098;SDS011;20374;49.474;10.944;2024-03-22T03:17:54;4.85;;;4.32;;
34098;SDS011;20374;49.474;10.944;2024-03-22T03:20:20;3.72;;;3.38;;
34098;SDS011;20374;49.474;10.944;2024-03-22T03:22:45;5.90;;;5.37;;
34098;SDS011;20374;49.474;10.944;2024-03-22T03:25:12;3.85;;;3.55;;
34098;SDS011;20374;49.474;10.944;2024-03-22T03:27:38;5.03;;;3.92;;
34098;SDS011;20374;49.474;10.944;2024-03-22T03:30:04;4.73;;;4.20;;
34098;SDS011;20374;49.474;10.944;2024-03-22T03:32:30;6.25;;;4.82;;
34098;SDS011;20374;49.474;10.944;2024-03-22T03:34:56;5.03;;;4.63;;
34098;SDS011;20374;49.474;10.944;2024-03-22T03:37:22;4.73;;;4.33;;
34098;SDS011;20374;49.474;10.944;2024-03-22T03:39:48;5.18;;;4.68;;
34098;SDS011;20374;49.474;10.944;2024-03-22T03:42:14;5.13;;;4.30;;
34098;SDS011;20374;49.474;10.944;2024-03-22T03:44:39;6.03;;;4.25;;
34098;SDS011;20374;49.474;10.944;2024-03-22T03:47:06;5.53;;;5.00;;
34098;SDS011;20374;49.474;10.944;2024-03-22T03:49:33;4.13;;;3.83;;
34098;SDS011;20374;49.474;10.944;2024-03-22T03:51:58;3.75;;;3.30;;
34098;SDS011;20374;49.474;10.944;2024-03-22T03:54:24;4.47;;;4.07;;
34098;SDS011;20374;49.474;10.944;2024-03-22T03:56:50;3.30;;;3.00;;
34098;SDS011;20374;49.474;10.944;2024-03-22T03:59:16;5.50;;;4.68;;
34098;SDS011;20374;49.474;10.944;2024-03-22T04:01:42;4.03;;;3.72;;
34098;SDS011;20374;49.474;10.944;2024-03-22T04:04:08;4.72;;;4.20;;
34098;SDS011;20374;49.474;10.944;2024-03-22T04:06:34;3.78;;;3.47;;
34098;SDS011;20374;49.474;10.944;2024-03-22T04:09:00;4.72;;;4.32;;
34098;SDS011;20374;49.474;10.944;2024-03-22T04:11:27;5.00;;;3.73;;
34098;SDS011;20374;49.474;10.944;2024-03-22T04:13:53;4.68;;;3.90;;
34098;SDS011;20374;49.474;10.944;2024-03-22T04:16:19;4.30;;;3.58;;
34098;SDS011;20374;49.474;10.944;2024-03-22T04:18:45;4.70;;;4.37;;
34098;SDS011;20374;49.474;10.944;2024-03-22T04:21:11;5.18;;;4.45;;
34098;SDS011;20374;49.474;10.944;2024-03-22T04:23:37;4.28;;;3.88;;
34098;SDS011;20374;49.474;10.944;2024-03-22T04:26:03;7.43;;;5.37;;
34098;SDS011;20374;49.474;10.944;2024-03-22T04:28:29;5.80;;;4.25;;
34098;SDS011;20374;49.474;10.944;2024-03-22T04:30:59;7.68;;;4.28;;
34098;SDS011;20374;49.474;10.944;2024-03-22T04:33:28;5.50;;;4.20;;
34098;SDS011;20374;49.474;10.944;2024-03-22T04:35:54;4.63;;;4.22;;
34098;SDS011;20374;49.474;10.944;2024-03-22T04:38:24;4.33;;;4.03;;
34098;SDS011;20374;49.474;10.944;2024-03-22T04:40:51;4.30;;;3.92;;
34098;SDS011;20374;49.474;10.944;2024-03-22T04:43:17;5.57;;;5.05;;
34098;SDS011;20374;49.474;10.944;2024-03-22T04:45:43;4.70;;;4.30;;
34098;SDS011;20374;49.474;10.944;2024-03-22T04:48:11;4.90;;;4.40;;
34098;SDS011;20374;49.474;10.944;2024-03-22T04:50:38;4.47;;;4.10;;
34098;SDS011;20374;49.474;10.944;2024-03-22T04:53:04;5.97;;;3.58;;
34098;SDS011;20374;49.474;10.944;2024-03-22T04:55:31;5.60;;;5.07;;
34098;SDS011;20374;49.474;10.944;2024-03-22T04:57:58;6.28;;;4.28;;
34098;SDS011;20374;49.474;10.944;2024-03-22T05:00:24;4.10;;;3.80;;
34098;SDS011;20374;49.474;10.944;2024-03-22T05:02:53;4.82;;;4.45;;
34098;SDS011;20374;49.474;10.944;2024-03-22T05:05:20;5.50;;;4.32;;
34098;SDS011;20374;49.474;10.944;2024-03-22T05:07:46;5.05;;;4.55;;
34098;SDS011;20374;49.474;10.944;2024-03-22T05:10:12;4.22;;;3.92;;
34098;SDS011;20374;49.474;10.944;2024-03-22T05:12:38;4.77;;;4.47;;
34098;SDS011;20374;49.474;10.944;2024-03-22T05:15:05;4.95;;;3.90;;
34098;SDS011;20374;49.474;10.944;2024-03-22T05:17:31;5.22;;;4.80;;
34098;SDS011;20374;49.474;10.944;2024-03-22T05:19:58;4.75;;;4.20;;
34098;SDS011;20374;49.474;10.944;2024-03-22T05:22:24;5.25;;;4.28;;
34098;SDS011;20374;49.474;10.944;2024-03-22T05:24:50;4.20;;;3.80;;
34098;SDS011;20374;49.474;10.944;2024-03-22T05:27:16;4.72;;;3.65;;
34098;SDS011;20374;49.474;10.944;2024-03-22T05:29:43;3.95;;;3.40;;
34098;SDS011;20374;49.474;10.944;2024-03-22T05:32:09;10.43;;;5.23;;
34098;SDS011;20374;49.474;10.944;2024-03-22T05:34:34;4.40;;;3.90;;
34098;SDS011;20374;49.474;10.944;2024-03-22T05:37:01;4.50;;;4.07;;
34098;SDS011;20374;49.474;10.944;2024-03-22T05:39:27;5.88;;;4.03;;
34098;SDS011;20374;49.474;10.944;2024-03-22T05:41:53;4.87;;;4.47;;
34098;SDS011;20374;49.474;10.944;2024-03-22T05:44:22;5.05;;;4.65;;
34098;SDS011;20374;49.474;10.944;2024-03-22T05:46:48;5.60;;;5.13;;
34098;SDS011;20374;49.474;10.944;2024-03-22T05:49:15;3.67;;;3.38;;
34098;SDS011;20374;49.474;10.944;2024-03-22T05:51:41;5.57;;;4.83;;
34098;SDS011;20374;49.474;10.944;2024-03-22T05:54:07;4.03;;;3.70;;
34098;SDS011;20374;49.474;10.944;2024-03-22T05:56:33;5.40;;;4.90;;
34098;SDS011;20374;49.474;10.944;2024-03-22T05:58:59;6.20;;;4.30;;
34098;SDS011;20374;49.474;10.944;2024-03-22T06:01:25;5.32;;;4.90;;
34098;SDS011;20374;49.474;10.944;2024-03-22T06:03:51;5.18;;;4.78;;
34098;SDS011;20374;49.474;10.944;2024-03-22T06:06:16;4.23;;;3.93;;
34098;SDS011;20374;49.474;10.944;2024-03-22T06:08:42;3.47;;;3.17;;
34098;SDS011;20374;49.474;10.944;2024-03-22T06:11:17;5.93;;;5.32;;
34098;SDS011;20374;49.474;10.944;2024-03-22T06:13:43;5.82;;;4.07;;
34098;SDS011;20374;49.474;10.944;2024-03-22T06:16:09;4.38;;;3.95;;
34098;SDS011;20374;49.474;10.944;2024-03-22T06:18:35;4.95;;;3.95;;
34098;SDS011;20374;49.474;10.944;2024-03-22T06:21:00;4.63;;;4.05;;
34098;SDS011;20374;49.474;10.944;2024-03-22T06:23:26;7.80;;;4.77;;
34098;SDS011;20374;49.474;10.944;2024-03-22T06:25:52;6.43;;;5.82;;
34098;SDS011;20374;49.474;10.944;2024-03-22T06:28:19;8.50;;;6.40;;
34098;SDS011;20374;49.474;10.944;2024-03-22T06:30:45;9.32;;;6.35;;
34098;SDS011;20374;49.474;10.944;2024-03-22T06:33:11;5.65;;;4.88;;
34098;SDS011;20374;49.474;10.944;2024-03-22T06:35:37;7.80;;;7.07;;
34098;SDS011;20374;49.474;10.944;2024-03-22T06:38:03;5.50;;;5.00;;
34098;SDS011;20374;49.474;10.944;2024-03-22T06:40:29;6.07;;;5.45;;
34098;SDS011;20374;49.474;10.944;2024-03-22T06:42:55;6.93;;;6.32;;
34098;SDS011;20374;49.474;10.944;2024-03-22T06:45:21;5.90;;;4.85;;
34098;SDS011;20374;49.474;10.944;2024-03-22T06:47:47;5.97;;;4.83;;
34098;SDS011;20374;49.474;10.944;2024-03-22T06:50:13;12.20;;;5.85;;
34098;SDS011;20374;49.474;10.944;2024-03-22T06:52:39;5.77;;;5.37;;
34098;SDS011;20374;49.474;10.944;2024-03-22T06:55:05;4.95;;;4.55;;
34098;SDS011;20374;49.474;10.944;2024-03-22T06:57:31;6.20;;;5.65;;
34098;SDS011;20374;49.474;10.944;2024-03-22T06:59:59;5.00;;;4.60;;
34098;SDS011;20374;49.474;10.944;2024-03-22T07:02:25;6.47;;;5.83;;
34098;SDS011;20374;49.474;10.944;2024-03-22T07:04:51;6.93;;;5.75;;
34098;SDS011;20374;49.474;10.944;2024-03-22T07:07:19;5.45;;;4.95;;
34098;SDS011;20374;49.474;10.944;2024-03-22T07:09:45;7.30;;;5.72;;
34098;SDS011;20374;49.474;10.944;2024-03-22T07:12:12;6.43;;;5.83;;
34098;SDS011;20374;49.474;10.944;2024-03-22T07:14:39;5.50;;;5.00;;
34098;SDS011;20374;49.474;10.944;2024-03-22T07:17:05;7.05;;;6.45;;
34098;SDS011;20374;49.474;10.944;2024-03-22T07:19:31;6.10;;;5.38;;
34098;SDS011;20374;49.474;10.944;2024-03-22T07:21:58;7.00;;;5.65;;
34098;SDS011;20374;49.474;10.944;2024-03-22T07:24:24;6.77;;;6.00;;
34098;SDS011;20374;49.474;10.944;2024-03-22T07:26:51;4.72;;;4.32;;
34098;SDS011;20374;49.474;10.944;2024-03-22T07:29:17;7.70;;;6.35;;
34098;SDS011;20374;49.474;10.944;2024-03-22T07:31:43;6.78;;;6.18;;
34098;SDS011;20374;49.474;10.944;2024-03-22T07:34:08;6.63;;;5.47;;
34098;SDS011;20374;49.474;10.944;2024-03-22T07:36:38;4.85;;;4.35;;
34098;SDS011;20374;49.474;10.944;2024-03-22T07:39:04;6.38;;;5.80;;
34098;SDS011;20374;49.474;10.944;2024-03-22T07:41:33;5.82;;;4.88;;
34098;SDS011;20374;49.474;10.944;2024-03-22T07:44:00;7.57;;;5.47;;
34098;SDS011;20374;49.474;10.944;2024-03-22T07:46:26;6.47;;;5.90;;
34098;SDS011;20374;49.474;10.944;2024-03-22T07:48:53;5.30;;;4.80;;
34098;SDS011;20374;49.474;10.944;2024-03-22T07:51:19;6.18;;;5.68;;
34098;SDS011;20374;49.474;10.944;2024-03-22T07:53:45;7.43;;;6.88;;
34098;SDS011;20374;49.474;10.944;2024-03-22T07:56:11;6.97;;;5.40;;
34098;SDS011;20374;49.474;10.944;2024-03-22T07:58:40;6.32;;;5.82;;
34098;SDS011;20374;49.474;10.944;2024-03-22T08:01:06;9.38;;;6.13;;
34098;SDS011;20374;49.474;10.944;2024-03-22T08:03:32;7.13;;;6.40;;
34098;SDS011;20374;49.474;10.944;2024-03-22T08:05:58;6.00;;;5.50;;
34098;SDS011;20374;49.474;10.944;2024-03-22T08:08:24;7.25;;;5.55;;
34098;SDS011;20374;49.474;10.944;2024-03-22T08:10:50;5.97;;;5.43;;
34098;SDS011;20374;49.474;10.944;2024-03-22T08:13:16;5.75;;;5.22;;
34098;SDS011;20374;49.474;10.944;2024-03-22T08:15:42;4.90;;;4.45;;
34098;SDS011;20374;49.474;10.944;2024-03-22T08:18:10;8.02;;;6.07;;
34098;SDS011;20374;49.474;10.944;2024-03-22T08:20:36;7.18;;;6.57;;
34098;SDS011;20374;49.474;10.944;2024-03-22T08:23:04;6.67;;;5.63;;
34098;SDS011;20374;49.474;10.944;2024-03-22T08:25:30;6.80;;;6.10;;
34098;SDS011;20374;49.474;10.944;2024-03-22T08:27:57;7.40;;;6.03;;
34098;SDS011;20374;49.474;10.944;2024-03-22T08:30:23;6.03;;;4.80;;
34098;SDS011;20374;49.474;10.944;2024-03-22T08:32:50;6.63;;;6.00;;
34098;SDS011;20374;49.474;10.944;2024-03-22T08:35:17;7.82;;;7.05;;
34098;SDS011;20374;49.474;10.944;2024-03-22T08:37:43;5.90;;;5.30;;
34098;SDS011;20374;49.474;10.944;2024-03-22T08:40:09;5.72;;;5.10;;
34098;SDS011;20374;49.474;10.944;2024-03-22T08:42:36;6.70;;;6.17;;
34098;SDS011;20374;49.474;10.944;2024-03-22T08:45:02;6.70;;;6.07;;
34098;SDS011;20374;49.474;10.944;2024-03-22T08:47:29;5.97;;;5.47;;
34098;SDS011;20374;49.474;10.944;2024-03-22T08:49:56;6.57;;;5.80;;
34098;SDS011;20374;49.474;10.944;2024-03-22T08:52:23;6.47;;;5.88;;
34098;SDS011;20374;49.474;10.944;2024-03-22T08:54:50;7.07;;;6.47;;
34098;SDS011;20374;49.474;10.944;2024-03-22T08:57:17;6.50;;;5.90;;
34098;SDS011;20374;49.474;10.944;2024-03-22T08:59:44;14.65;;;7.05;;
34098;SDS011;20374;49.474;10.944;2024-03-22T09:02:10;8.45;;;7.65;;
34098;SDS011;20374;49.474;10.944;2024-03-22T09:04:36;7.93;;;7.32;;
34098;SDS011;20374;49.474;10.944;2024-03-22T09:07:03;8.47;;;6.70;;
34098;SDS011;20374;49.474;10.944;2024-03-22T09:09:29;8.45;;;7.63;;
34098;SDS011;20374;49.474;10.944;2024-03-22T09:11:55;8.10;;;7.40;;
34098;SDS011;20374;49.474;10.944;2024-03-22T09:14:21;8.50;;;7.47;;
34098;SDS011;20374;49.474;10.944;2024-03-22T09:16:47;8.00;;;7.27;;
34098;SDS011;20374;49.474;10.944;2024-03-22T09:19:13;7.85;;;7.05;;
34098;SDS011;20374;49.474;10.944;2024-03-22T09:21:39;6.90;;;6.20;;
34098;SDS011;20374;49.474;10.944;2024-03-22T09:24:05;8.30;;;7.28;;
34098;SDS011;20374;49.474;10.944;2024-03-22T09:26:32;7.32;;;6.72;;
34098;SDS011;20374;49.474;10.944;2024-03-22T09:28:58;7.35;;;6.65;;
34098;SDS011;20374;49.474;10.944;2024-03-22T09:31:24;7.50;;;6.80;;
34098;SDS011;20374;49.474;10.944;2024-03-22T09:33:50;6.53;;;5.75;;
34098;SDS011;20374;49.474;10.944;2024-03-22T09:36:16;7.35;;;6.65;;
34098;SDS011;20374;49.474;10.944;2024-03-22T09:38:42;7.13;;;6.45;;
34098;SDS011;20374;49.474;10.944;2024-03-22T09:41:08;6.47;;;5.57;;
34098;SDS011;20374;49.474;10.944;2024-03-22T09:43:34;6.43;;;5.82;;
34098;SDS011;20374;49.474;10.944;2024-03-22T09:46:01;7.45;;;6.60;;
34098;SDS011;20374;49.474;10.944;2024-03-22T09:48:27;7.93;;;5.57;;
34098;SDS011;20374;49.474;10.944;2024-03-22T09:50:54;6.75;;;5.80;;
34098;SDS011;20374;49.474;10.944;2024-03-22T09:53:21;8.27;;;7.20;;
34098;SDS011;20374;49.474;10.944;2024-03-22T09:55:48;8.20;;;7.03;;
34098;SDS011;20374;49.474;10.944;2024-03-22T09:58:15;6.60;;;6.07;;
34098;SDS011;20374;49.474;10.944;2024-03-22T10:00:44;7.72;;;7.03;;
34098;SDS011;20374;49.474;10.944;2024-03-22T10:03:10;7.45;;;6.75;;
34098;SDS011;20374;49.474;10.944;2024-03-22T10:05:36;5.80;;;5.28;;
34098;SDS011;20374;49.474;10.944;2024-03-22T10:08:03;6.40;;;5.80;;
34098;SDS011;20374;49.474;10.944;2024-03-22T10:10:31;7.72;;;7.03;;
34098;SDS011;20374;49.474;10.944;2024-03-22T10:13:00;8.65;;;6.57;;
34098;SDS011;20374;49.474;10.944;2024-03-22T10:15:26;9.77;;;6.93;;
34098;SDS011;20374;49.474;10.944;2024-03-22T10:17:54;7.33;;;6.63;;
34098;SDS011;20374;49.474;10.944;2024-03-22T10:20:22;6.57;;;6.07;;
34098;SDS011;20374;49.474;10.944;2024-03-22T10:22:49;7.75;;;7.05;;
34098;SDS011;20374;49.474;10.944;2024-03-22T10:25:21;6.35;;;5.75;;
34098;SDS011;20374;49.474;10.944;2024-03-22T10:27:54;7.30;;;6.53;;
34098;SDS011;20374;49.474;10.944;2024-03-22T10:30:24;7.60;;;6.80;;
34098;SDS011;20374;49.474;10.944;2024-03-22T10:32:58;5.97;;;5.47;;
34098;SDS011;20374;49.474;10.944;2024-03-22T10:35:24;7.40;;;6.80;;
34098;SDS011;20374;49.474;10.944;2024-03-22T10:37:52;6.90;;;6.35;;
34098;SDS011;20374;49.474;10.944;2024-03-22T10:40:18;6.80;;;6.20;;
34098;SDS011;20374;49.474;10.944;2024-03-22T10:42:46;6.78;;;6.18;;
34098;SDS011;20374;49.474;10.944;2024-03-22T10:45:12;7.07;;;6.47;;
34098;SDS011;20374;49.474;10.944;2024-03-22T10:47:38;7.05;;;6.45;;
34098;SDS011;20374;49.474;10.944;2024-03-22T10:50:05;6.40;;;5.90;;
34098;SDS011;20374;49.474;10.944;2024-03-22T10:52:45;6.90;;;6.30;;
34098;SDS011;20374;49.474;10.944;2024-03-22T10:55:20;5.75;;;5.25;;
34098;SDS011;20374;49.474;10.944;2024-03-22T10:57:56;6.50;;;5.97;;
34098;SDS011;20374;49.474;10.944;2024-03-22T11:02:55;7.97;;;7.27;;
34098;SDS011;20374;49.474;10.944;2024-03-22T11:05:22;6.60;;;6.00;;
34098;SDS011;20374;49.474;10.944;2024-03-22T11:07:48;7.80;;;7.13;;
34098;SDS011;20374;49.474;10.944;2024-03-22T11:10:25;7.55;;;6.30;;
34098;SDS011;20374;49.474;10.944;2024-03-22T11:12:55;7.07;;;6.47;;
34098;SDS011;20374;49.474;10.944;2024-03-22T11:15:22;6.27;;;5.77;;
34098;SDS011;20374;49.474;10.944;2024-03-22T11:17:48;6.55;;;6.05;;
34098;SDS011;20374;49.474;10.944;2024-03-22T11:20:15;6.10;;;5.65;;
34098;SDS011;20374;49.474;10.944;2024-03-22T11:22:41;6.00;;;5.50;;
34098;SDS011;20374;49.474;10.944;2024-03-22T11:25:06;6.10;;;5.60;;
34098;SDS011;20374;49.474;10.944;2024-03-22T11:27:32;5.72;;;5.22;;
34098;SDS011;20374;49.474;10.944;2024-03-22T11:29:58;5.43;;;5.03;;
34098;SDS011;20374;49.474;10.944;2024-03-22T11:32:24;5.80;;;5.40;;
34098;SDS011;20374;49.474;10.944;2024-03-22T11:34:50;6.30;;;5.80;;
34098;SDS011;20374;49.474;10.944;2024-03-22T11:37:16;5.63;;;5.22;;
34098;SDS011;20374;49.474;10.944;2024-03-22T11:39:42;5.50;;;5.10;;
34098;SDS011;20374;49.474;10.944;2024-03-22T11:42:08;5.90;;;5.40;;
34098;SDS011;20374;49.474;10.944;2024-03-22T11:44:36;5.80;;;5.30;;
34098;SDS011;20374;49.474;10.944;2024-03-22T11:47:04;6.17;;;5.77;;
34098;SDS011;20374;49.474;10.944;2024-03-22T11:49:30;6.38;;;5.88;;
34098;SDS011;20374;49.474;10.944;2024-03-22T11:51:56;7.07;;;6.40;;
34098;SDS011;20374;49.474;10.944;2024-03-22T11:54:22;6.15;;;5.65;;
34098;SDS011;20374;49.474;10.944;2024-03-22T11:56:51;6.73;;;6.20;;
34098;SDS011;20374;49.474;10.944;2024-03-22T11:59:19;6.82;;;6.22;;
34098;SDS011;20374;49.474;10.944;2024-03-22T12:01:46;6.22;;;5.72;;
34098;SDS011;20374;49.474;10.944;2024-03-22T12:04:12;6.35;;;5.85;;
34098;SDS011;20374;49.474;10.944;2024-03-22T12:06:44;6.30;;;5.80;;
34098;SDS011;20374;49.474;10.944;2024-03-22T12:09:11;6.27;;;5.77;;
34098;SDS011;20374;49.474;10.944;2024-03-22T12:11:39;6.95;;;6.45;;
34098;SDS011;20374;49.474;10.944;2024-03-22T12:14:05;6.32;;;5.82;;
34098;SDS011;20374;49.474;10.944;2024-03-22T12:16:31;6.30;;;5.70;;
34098;SDS011;20374;49.474;10.944;2024-03-22T12:18:57;6.45;;;5.95;;
34098;SDS011;20374;49.474;10.944;2024-03-22T12:21:23;4.83;;;4.43;;
34098;SDS011;20374;49.474;10.944;2024-03-22T12:23:50;6.00;;;5.60;;
34098;SDS011;20374;49.474;10.944;2024-03-22T12:26:16;5.95;;;5.55;;
34098;SDS011;20374;49.474;10.944;2024-03-22T12:28:43;5.22;;;4.90;;
34098;SDS011;20374;49.474;10.944;2024-03-22T12:31:09;5.10;;;4.70;;
34098;SDS011;20374;49.474;10.944;2024-03-22T12:33:38;6.28;;;5.78;;
34098;SDS011;20374;49.474;10.944;2024-03-22T12:36:04;4.97;;;4.57;;
34098;SDS011;20374;49.474;10.944;2024-03-22T12:38:30;5.90;;;5.47;;
34098;SDS011;20374;49.474;10.944;2024-03-22T12:40:56;5.40;;;5.00;;
34098;SDS011;20374;49.474;10.944;2024-03-22T12:43:22;5.35;;;4.95;;
34098;SDS011;20374;49.474;10.944;2024-03-22T12:45:48;6.07;;;5.50;;
34098;SDS011;20374;49.474;10.944;2024-03-22T12:48:14;5.53;;;5.13;;
34098;SDS011;20374;49.474;10.944;2024-03-22T12:50:40;5.28;;;4.88;;
34098;SDS011;20374;49.474;10.944;2024-03-22T12:53:06;5.80;;;5.40;;
34098;SDS011;20374;49.474;10.944;2024-03-22T12:55:32;5.85;;;5.45;;
34098;SDS011;20374;49.474;10.944;2024-03-22T12:57:58;5.07;;;4.68;;
34098;SDS011;20374;49.474;10.944;2024-03-22T13:00:24;5.97;;;5.50;;
34098;SDS011;20374;49.474;10.944;2024-03-22T13:02:50;5.68;;;5.28;;
34098;SDS011;20374;49.474;10.944;2024-03-22T13:05:17;5.50;;;5.20;;
34098;SDS011;20374;49.474;10.944;2024-03-22T13:07:43;6.07;;;5.68;;
34098;SDS011;20374;49.474;10.944;2024-03-22T13:10:09;5.90;;;5.40;;
34098;SDS011;20374;49.474;10.944;2024-03-22T13:12:35;6.05;;;5.65;;
34098;SDS011;20374;49.474;10.944;2024-03-22T13:15:01;6.05;;;5.55;;
34098;SDS011;20374;49.474;10.944;2024-03-22T13:17:28;5.47;;;5.07;;
34098;SDS011;20374;49.474;10.944;2024-03-22T13:19:54;5.57;;;5.07;;
34098;SDS011;20374;49.474;10.944;2024-03-22T13:22:20;5.72;;;5.30;;
34098;SDS011;20374;49.474;10.944;2024-03-22T13:24:45;5.93;;;5.43;;
34098;SDS011;20374;49.474;10.944;2024-03-22T13:27:12;5.38;;;4.97;;
34098;SDS011;20374;49.474;10.944;2024-03-22T13:29:38;5.27;;;4.87;;
34098;SDS011;20374;49.474;10.944;2024-03-22T13:32:05;5.85;;;5.45;;
34098;SDS011;20374;49.474;10.944;2024-03-22T13:34:36;5.82;;;5.43;;
34098;SDS011;20374;49.474;10.944;2024-03-22T13:37:02;5.10;;;4.80;;
34098;SDS011;20374;49.474;10.944;2024-03-22T13:39:28;5.28;;;4.95;;
34098;SDS011;20374;49.474;10.944;2024-03-22T13:41:55;5.40;;;5.10;;
34098;SDS011;20374;49.474;10.944;2024-03-22T13:44:22;5.22;;;4.82;;
34098;SDS011;20374;49.474;10.944;2024-03-22T13:46:51;5.65;;;5.18;;
34098;SDS011;20374;49.474;10.944;2024-03-22T13:49:18;5.18;;;4.78;;
34098;SDS011;20374;49.474;10.944;2024-03-22T13:51:46;5.30;;;4.90;;
34098;SDS011;20374;49.474;10.944;2024-03-22T13:54:13;5.77;;;5.37;;
34098;SDS011;20374;49.474;10.944;2024-03-22T13:56:39;5.45;;;5.03;;
34098;SDS011;20374;49.474;10.944;2024-03-22T13:59:05;5.60;;;5.10;;
34098;SDS011;20374;49.474;10.944;2024-03-22T14:01:33;5.00;;;4.60;;
34098;SDS011;20374;49.474;10.944;2024-03-22T14:04:00;5.72;;;5.32;;
34098;SDS011;20374;49.474;10.944;2024-03-22T14:06:26;5.33;;;4.97;;
34098;SDS011;20374;49.474;10.944;2024-03-22T14:08:52;4.90;;;4.50;;
34098;SDS011;20374;49.474;10.944;2024-03-22T14:11:20;5.43;;;5.03;;
34098;SDS011;20374;49.474;10.944;2024-03-22T14:13:46;4.72;;;4.43;;
34098;SDS011;20374;49.474;10.944;2024-03-22T14:16:12;4.90;;;4.50;;
34098;SDS011;20374;49.474;10.944;2024-03-22T14:18:38;5.68;;;5.18;;
34098;SDS011;20374;49.474;10.944;2024-03-22T14:21:04;5.03;;;4.70;;
34098;SDS011;20374;49.474;10.944;2024-03-22T14:23:30;5.30;;;4.90;;
34098;SDS011;20374;49.474;10.944;2024-03-22T14:25:55;5.70;;;5.30;;
34098;SDS011;20374;49.474;10.944;2024-03-22T14:28:21;5.20;;;4.80;;
34098;SDS011;20374;49.474;10.944;2024-03-22T14:30:47;4.70;;;4.30;;